sensor_id;sensor_type;location;lat;lon;timestamp;P1;durP1;ratioP1;P2;durP2;ratioP2
14125;SDS011;7141;49.484;11.242;2022-11-04T00:01:33;19.43;;;12.13;;
14125;SDS011;7141;49.484;11.242;2022-11-04T00:03:59;13.67;;;10.30;;
14125;SDS011;7141;49.484;11.242;2022-11-04T00:06:25;22.17;;;11.70;;
14125;SDS011;7141;49.484;11.242;2022-11-04T00:08:52;17.77;;;12.20;;
14125;SDS011;7141;49.484;11.242;2022-11-04T00:11:19;19.57;;;12.03;;
14125;SDS011;7141;49.484;11.242;2022-11-04T00:14:04;14.63;;;10.93;;
14125;SDS011;7141;49.484;11.242;2022-11-04T00:16:30;19.33;;;11.83;;
14125;SDS011;7141;49.484;11.242;2022-11-04T00:19:15;19.37;;;10.83;;
14125;SDS011;7141;49.484;11.242;2022-11-04T00:21:41;19.37;;;11.17;;
14125;SDS011;7141;49.484;11.242;2022-11-04T00:24:26;23.20;;;15.90;;
14125;SDS011;7141;49.484;11.242;2022-11-04T00:27:12;32.20;;;23.17;;
14125;SDS011;7141;49.484;11.242;2022-11-04T00:29:57;26.20;;;16.67;;
14125;SDS011;7141;49.484;11.242;2022-11-04T00:32:23;22.40;;;13.90;;
14125;SDS011;7141;49.484;11.242;2022-11-04T00:35:08;14.93;;;10.33;;
14125;SDS011;7141;49.484;11.242;2022-11-04T00:37:35;15.23;;;11.07;;
14125;SDS011;7141;49.484;11.242;2022-11-04T00:40:01;15.77;;;10.53;;
14125;SDS011;7141;49.484;11.242;2022-11-04T00:42:27;14.93;;;10.03;;
14125;SDS011;7141;49.484;11.242;2022-11-04T00:44:53;18.30;;;10.37;;
14125;SDS011;7141;49.484;11.242;2022-11-04T00:47:19;16.33;;;11.57;;
14125;SDS011;7141;49.484;11.242;2022-11-04T00:49:45;15.77;;;10.70;;
14125;SDS011;7141;49.484;11.242;2022-11-04T00:52:11;15.00;;;10.13;;
14125;SDS011;7141;49.484;11.242;2022-11-04T00:54:37;17.80;;;10.47;;
14125;SDS011;7141;49.484;11.242;2022-11-04T00:57:03;13.83;;;9.83;;
14125;SDS011;7141;49.484;11.242;2022-11-04T00:59:29;15.20;;;9.47;;
14125;SDS011;7141;49.484;11.242;2022-11-04T01:01:55;15.33;;;9.63;;
14125;SDS011;7141;49.484;11.242;2022-11-04T01:04:21;13.83;;;9.80;;
14125;SDS011;7141;49.484;11.242;2022-11-04T01:06:47;13.13;;;8.97;;
14125;SDS011;7141;49.484;11.242;2022-11-04T01:09:13;15.77;;;8.90;;
14125;SDS011;7141;49.484;11.242;2022-11-04T01:11:39;11.53;;;8.97;;
14125;SDS011;7141;49.484;11.242;2022-11-04T01:14:05;15.30;;;8.70;;
14125;SDS011;7141;49.484;11.242;2022-11-04T01:16:31;15.13;;;8.73;;
14125;SDS011;7141;49.484;11.242;2022-11-04T01:18:57;13.03;;;8.70;;
14125;SDS011;7141;49.484;11.242;2022-11-04T01:21:23;12.97;;;8.00;;
14125;SDS011;7141;49.484;11.242;2022-11-04T01:23:49;12.70;;;7.73;;
14125;SDS011;7141;49.484;11.242;2022-11-04T01:26:16;12.47;;;7.57;;
14125;SDS011;7141;49.484;11.242;2022-11-04T01:28:43;12.80;;;7.93;;
14125;SDS011;7141;49.484;11.242;2022-11-04T01:31:13;12.87;;;8.40;;
14125;SDS011;7141;49.484;11.242;2022-11-04T01:33:39;12.43;;;7.80;;
14125;SDS011;7141;49.484;11.242;2022-11-04T01:36:06;12.10;;;8.03;;
14125;SDS011;7141;49.484;11.242;2022-11-04T01:38:32;11.43;;;8.43;;
14125;SDS011;7141;49.484;11.242;2022-11-04T01:40:58;11.90;;;8.20;;
14125;SDS011;7141;49.484;11.242;2022-11-04T01:46:09;12.73;;;7.80;;
14125;SDS011;7141;49.484;11.242;2022-11-04T01:48:37;12.60;;;7.17;;
14125;SDS011;7141;49.484;11.242;2022-11-04T01:51:03;12.33;;;7.10;;
14125;SDS011;7141;49.484;11.242;2022-11-04T01:53:31;11.10;;;7.07;;
14125;SDS011;7141;49.484;11.242;2022-11-04T01:56:01;10.97;;;6.97;;
14125;SDS011;7141;49.484;11.242;2022-11-04T01:58:35;12.13;;;7.77;;
14125;SDS011;7141;49.484;11.242;2022-11-04T02:01:02;14.67;;;7.13;;
14125;SDS011;7141;49.484;11.242;2022-11-04T02:03:33;7.43;;;5.83;;
14125;SDS011;7141;49.484;11.242;2022-11-04T02:05:59;10.97;;;5.43;;
14125;SDS011;7141;49.484;11.242;2022-11-04T02:08:26;8.20;;;5.27;;
14125;SDS011;7141;49.484;11.242;2022-11-04T02:10:56;10.17;;;5.30;;
14125;SDS011;7141;49.484;11.242;2022-11-04T02:13:22;6.60;;;4.60;;
14125;SDS011;7141;49.484;11.242;2022-11-04T02:33:57;4.90;;;3.20;;
14125;SDS011;7141;49.484;11.242;2022-11-04T02:39:22;5.10;;;2.83;;
14125;SDS011;7141;49.484;11.242;2022-11-04T02:41:57;6.13;;;2.93;;
14125;SDS011;7141;49.484;11.242;2022-11-04T02:44:30;4.27;;;2.37;;
14125;SDS011;7141;49.484;11.242;2022-11-04T02:47:02;4.37;;;2.77;;
14125;SDS011;7141;49.484;11.242;2022-11-04T02:52:26;2.77;;;2.00;;
14125;SDS011;7141;49.484;11.242;2022-11-04T02:54:59;3.03;;;2.37;;
14125;SDS011;7141;49.484;11.242;2022-11-04T02:57:27;2.83;;;2.00;;
14125;SDS011;7141;49.484;11.242;2022-11-04T03:02:27;4.80;;;2.27;;
14125;SDS011;7141;49.484;11.242;2022-11-04T03:04:54;3.33;;;2.20;;
14125;SDS011;7141;49.484;11.242;2022-11-04T03:07:23;4.43;;;1.97;;
14125;SDS011;7141;49.484;11.242;2022-11-04T03:09:51;6.80;;;2.17;;
14125;SDS011;7141;49.484;11.242;2022-11-04T03:12:19;3.23;;;2.00;;
14125;SDS011;7141;49.484;11.242;2022-11-04T03:14:53;3.67;;;2.10;;
14125;SDS011;7141;49.484;11.242;2022-11-04T03:17:25;3.63;;;1.83;;
14125;SDS011;7141;49.484;11.242;2022-11-04T03:19:56;1.60;;;1.50;;
14125;SDS011;7141;49.484;11.242;2022-11-04T03:22:24;2.17;;;1.83;;
14125;SDS011;7141;49.484;11.242;2022-11-04T03:24:51;2.60;;;1.80;;
14125;SDS011;7141;49.484;11.242;2022-11-04T03:27:24;2.50;;;1.80;;
14125;SDS011;7141;49.484;11.242;2022-11-04T03:34:59;2.00;;;1.60;;
14125;SDS011;7141;49.484;11.242;2022-11-04T03:37:25;2.67;;;1.93;;
14125;SDS011;7141;49.484;11.242;2022-11-04T03:39:51;1.87;;;1.50;;
14125;SDS011;7141;49.484;11.242;2022-11-04T03:42:17;4.53;;;1.70;;
14125;SDS011;7141;49.484;11.242;2022-11-04T03:44:51;2.13;;;1.80;;
14125;SDS011;7141;49.484;11.242;2022-11-04T03:47:17;2.53;;;1.53;;
14125;SDS011;7141;49.484;11.242;2022-11-04T03:49:45;2.13;;;1.93;;
14125;SDS011;7141;49.484;11.242;2022-11-04T03:52:11;3.03;;;1.60;;
14125;SDS011;7141;49.484;11.242;2022-11-04T03:54:37;1.60;;;1.30;;
14125;SDS011;7141;49.484;11.242;2022-11-04T04:00:02;2.70;;;1.70;;
14125;SDS011;7141;49.484;11.242;2022-11-04T04:02:37;2.47;;;1.60;;
14125;SDS011;7141;49.484;11.242;2022-11-04T04:05:26;5.10;;;3.00;;
14125;SDS011;7141;49.484;11.242;2022-11-04T04:07:52;7.27;;;2.90;;
14125;SDS011;7141;49.484;11.242;2022-11-04T04:10:36;2.30;;;1.77;;
14125;SDS011;7141;49.484;11.242;2022-11-04T04:13:10;3.30;;;2.27;;
14125;SDS011;7141;49.484;11.242;2022-11-04T04:18:35;2.17;;;1.70;;
14125;SDS011;7141;49.484;11.242;2022-11-04T04:21:02;4.50;;;1.60;;
14125;SDS011;7141;49.484;11.242;2022-11-04T04:23:29;3.60;;;1.80;;
14125;SDS011;7141;49.484;11.242;2022-11-04T04:26:15;3.20;;;1.90;;
14125;SDS011;7141;49.484;11.242;2022-11-04T04:29:01;2.60;;;1.73;;
14125;SDS011;7141;49.484;11.242;2022-11-04T04:31:30;3.43;;;1.67;;
14125;SDS011;7141;49.484;11.242;2022-11-04T04:34:14;2.77;;;1.60;;
14125;SDS011;7141;49.484;11.242;2022-11-04T04:36:45;2.17;;;1.90;;
14125;SDS011;7141;49.484;11.242;2022-11-04T04:39:11;1.50;;;1.40;;
14125;SDS011;7141;49.484;11.242;2022-11-04T04:41:57;3.77;;;1.90;;
14125;SDS011;7141;49.484;11.242;2022-11-04T04:44:42;4.73;;;1.90;;
14125;SDS011;7141;49.484;11.242;2022-11-04T04:47:23;3.37;;;1.67;;
14125;SDS011;7141;49.484;11.242;2022-11-04T04:49:54;6.17;;;1.80;;
14125;SDS011;7141;49.484;11.242;2022-11-04T04:52:20;2.10;;;1.50;;
14125;SDS011;7141;49.484;11.242;2022-11-04T04:54:47;2.67;;;1.70;;
14125;SDS011;7141;49.484;11.242;2022-11-04T04:57:12;2.13;;;1.83;;
14125;SDS011;7141;49.484;11.242;2022-11-04T04:59:38;4.13;;;2.30;;
14125;SDS011;7141;49.484;11.242;2022-11-04T05:02:04;3.00;;;2.00;;
14125;SDS011;7141;49.484;11.242;2022-11-04T05:04:30;5.07;;;2.20;;
14125;SDS011;7141;49.484;11.242;2022-11-04T05:06:56;2.10;;;1.90;;
14125;SDS011;7141;49.484;11.242;2022-11-04T05:09:22;2.43;;;1.67;;
14125;SDS011;7141;49.484;11.242;2022-11-04T05:11:48;3.70;;;1.73;;
14125;SDS011;7141;49.484;11.242;2022-11-04T05:14:14;3.70;;;1.90;;
14125;SDS011;7141;49.484;11.242;2022-11-04T05:16:40;3.83;;;1.97;;
14125;SDS011;7141;49.484;11.242;2022-11-04T05:19:06;2.93;;;1.77;;
14125;SDS011;7141;49.484;11.242;2022-11-04T05:21:32;3.17;;;2.03;;
14125;SDS011;7141;49.484;11.242;2022-11-04T05:23:58;2.47;;;1.70;;
14125;SDS011;7141;49.484;11.242;2022-11-04T05:26:24;3.47;;;1.87;;
14125;SDS011;7141;49.484;11.242;2022-11-04T05:28:50;2.63;;;2.03;;
14125;SDS011;7141;49.484;11.242;2022-11-04T05:31:16;2.27;;;1.83;;
14125;SDS011;7141;49.484;11.242;2022-11-04T05:33:42;2.77;;;2.23;;
14125;SDS011;7141;49.484;11.242;2022-11-04T05:36:09;1.70;;;1.50;;
14125;SDS011;7141;49.484;11.242;2022-11-04T05:38:35;3.53;;;1.90;;
14125;SDS011;7141;49.484;11.242;2022-11-04T05:41:02;3.67;;;2.23;;
14125;SDS011;7141;49.484;11.242;2022-11-04T05:43:28;3.00;;;2.10;;
14125;SDS011;7141;49.484;11.242;2022-11-04T05:45:54;2.13;;;1.83;;
14125;SDS011;7141;49.484;11.242;2022-11-04T05:48:20;2.03;;;1.70;;
14125;SDS011;7141;49.484;11.242;2022-11-04T05:50:46;3.93;;;2.10;;
14125;SDS011;7141;49.484;11.242;2022-11-04T05:53:12;2.40;;;1.97;;
14125;SDS011;7141;49.484;11.242;2022-11-04T05:55:38;2.77;;;1.90;;
14125;SDS011;7141;49.484;11.242;2022-11-04T05:58:04;2.83;;;2.17;;
14125;SDS011;7141;49.484;11.242;2022-11-04T06:00:30;4.27;;;2.00;;
14125;SDS011;7141;49.484;11.242;2022-11-04T06:02:56;3.27;;;2.13;;
14125;SDS011;7141;49.484;11.242;2022-11-04T06:05:22;3.80;;;1.83;;
14125;SDS011;7141;49.484;11.242;2022-11-04T06:07:48;2.50;;;2.00;;
14125;SDS011;7141;49.484;11.242;2022-11-04T06:10:14;2.37;;;1.70;;
14125;SDS011;7141;49.484;11.242;2022-11-04T06:12:40;3.33;;;1.90;;
14125;SDS011;7141;49.484;11.242;2022-11-04T06:15:06;5.80;;;1.97;;
14125;SDS011;7141;49.484;11.242;2022-11-04T06:17:32;3.20;;;1.80;;
14125;SDS011;7141;49.484;11.242;2022-11-04T06:19:58;2.37;;;2.00;;
14125;SDS011;7141;49.484;11.242;2022-11-04T06:22:24;2.60;;;2.13;;
14125;SDS011;7141;49.484;11.242;2022-11-04T06:24:50;2.70;;;2.30;;
14125;SDS011;7141;49.484;11.242;2022-11-04T06:27:16;3.93;;;2.10;;
14125;SDS011;7141;49.484;11.242;2022-11-04T06:29:42;2.27;;;1.80;;
14125;SDS011;7141;49.484;11.242;2022-11-04T06:32:09;4.57;;;2.00;;
14125;SDS011;7141;49.484;11.242;2022-11-04T06:34:35;2.27;;;1.80;;
14125;SDS011;7141;49.484;11.242;2022-11-04T06:37:01;3.67;;;2.00;;
14125;SDS011;7141;49.484;11.242;2022-11-04T06:39:28;3.33;;;1.70;;
14125;SDS011;7141;49.484;11.242;2022-11-04T06:41:54;4.13;;;2.00;;
14125;SDS011;7141;49.484;11.242;2022-11-04T06:44:20;2.67;;;2.10;;
14125;SDS011;7141;49.484;11.242;2022-11-04T06:46:46;3.43;;;2.03;;
14125;SDS011;7141;49.484;11.242;2022-11-04T06:49:12;2.77;;;1.73;;
14125;SDS011;7141;49.484;11.242;2022-11-04T06:51:39;4.20;;;2.37;;
14125;SDS011;7141;49.484;11.242;2022-11-04T06:54:05;3.77;;;2.30;;
14125;SDS011;7141;49.484;11.242;2022-11-04T06:56:31;4.00;;;2.20;;
14125;SDS011;7141;49.484;11.242;2022-11-04T06:58:57;4.13;;;2.20;;
14125;SDS011;7141;49.484;11.242;2022-11-04T07:01:25;2.93;;;1.83;;
14125;SDS011;7141;49.484;11.242;2022-11-04T07:03:52;4.87;;;2.57;;
14125;SDS011;7141;49.484;11.242;2022-11-04T07:06:19;4.13;;;2.30;;
14125;SDS011;7141;49.484;11.242;2022-11-04T07:08:45;4.63;;;2.23;;
14125;SDS011;7141;49.484;11.242;2022-11-04T07:11:12;5.70;;;2.10;;
14125;SDS011;7141;49.484;11.242;2022-11-04T07:13:38;5.47;;;2.50;;
14125;SDS011;7141;49.484;11.242;2022-11-04T07:16:05;4.27;;;2.60;;
14125;SDS011;7141;49.484;11.242;2022-11-04T07:18:32;4.93;;;2.60;;
14125;SDS011;7141;49.484;11.242;2022-11-04T07:20:58;6.60;;;2.30;;
14125;SDS011;7141;49.484;11.242;2022-11-04T07:23:24;5.80;;;2.83;;
14125;SDS011;7141;49.484;11.242;2022-11-04T07:25:50;3.43;;;2.00;;
14125;SDS011;7141;49.484;11.242;2022-11-04T07:28:18;4.80;;;1.77;;
14125;SDS011;7141;49.484;11.242;2022-11-04T07:30:44;3.07;;;1.50;;
14125;SDS011;7141;49.484;11.242;2022-11-04T07:33:11;4.30;;;2.40;;
14125;SDS011;7141;49.484;11.242;2022-11-04T07:35:37;2.97;;;1.50;;
14125;SDS011;7141;49.484;11.242;2022-11-04T07:38:03;1.80;;;1.70;;
14125;SDS011;7141;49.484;11.242;2022-11-04T07:40:29;2.37;;;1.63;;
14125;SDS011;7141;49.484;11.242;2022-11-04T07:42:58;3.23;;;1.83;;
14125;SDS011;7141;49.484;11.242;2022-11-04T07:45:24;2.33;;;2.10;;
14125;SDS011;7141;49.484;11.242;2022-11-04T07:47:50;3.93;;;2.20;;
14125;SDS011;7141;49.484;11.242;2022-11-04T07:50:17;4.67;;;2.00;;
14125;SDS011;7141;49.484;11.242;2022-11-04T07:52:43;3.83;;;1.60;;
14125;SDS011;7141;49.484;11.242;2022-11-04T07:55:09;2.17;;;1.80;;
14125;SDS011;7141;49.484;11.242;2022-11-04T07:57:37;3.53;;;1.83;;
14125;SDS011;7141;49.484;11.242;2022-11-04T08:00:04;3.87;;;2.03;;
14125;SDS011;7141;49.484;11.242;2022-11-04T08:02:30;4.33;;;1.97;;
14125;SDS011;7141;49.484;11.242;2022-11-04T08:04:56;3.07;;;1.90;;
14125;SDS011;7141;49.484;11.242;2022-11-04T08:07:22;3.83;;;1.90;;
14125;SDS011;7141;49.484;11.242;2022-11-04T08:09:48;3.60;;;2.10;;
14125;SDS011;7141;49.484;11.242;2022-11-04T08:12:14;4.70;;;1.70;;
14125;SDS011;7141;49.484;11.242;2022-11-04T08:14:40;6.90;;;3.20;;
14125;SDS011;7141;49.484;11.242;2022-11-04T08:17:07;5.00;;;3.40;;
14125;SDS011;7141;49.484;11.242;2022-11-04T08:19:33;5.40;;;2.93;;
14125;SDS011;7141;49.484;11.242;2022-11-04T08:21:59;7.80;;;3.10;;
14125;SDS011;7141;49.484;11.242;2022-11-04T08:24:25;4.03;;;1.90;;
14125;SDS011;7141;49.484;11.242;2022-11-04T08:26:51;5.00;;;1.87;;
14125;SDS011;7141;49.484;11.242;2022-11-04T08:29:17;2.63;;;1.87;;
14125;SDS011;7141;49.484;11.242;2022-11-04T08:31:43;2.93;;;2.07;;
14125;SDS011;7141;49.484;11.242;2022-11-04T08:34:09;5.87;;;2.10;;
14125;SDS011;7141;49.484;11.242;2022-11-04T08:36:36;3.03;;;2.20;;
14125;SDS011;7141;49.484;11.242;2022-11-04T08:39:05;5.17;;;2.40;;
14125;SDS011;7141;49.484;11.242;2022-11-04T08:41:31;2.60;;;1.93;;
14125;SDS011;7141;49.484;11.242;2022-11-04T08:43:58;3.33;;;2.17;;
14125;SDS011;7141;49.484;11.242;2022-11-04T08:46:28;5.10;;;2.30;;
14125;SDS011;7141;49.484;11.242;2022-11-04T08:48:54;3.17;;;1.90;;
14125;SDS011;7141;49.484;11.242;2022-11-04T08:51:21;3.53;;;1.73;;
14125;SDS011;7141;49.484;11.242;2022-11-04T08:53:48;3.47;;;2.10;;
14125;SDS011;7141;49.484;11.242;2022-11-04T08:56:15;3.53;;;2.20;;
14125;SDS011;7141;49.484;11.242;2022-11-04T08:58:42;3.70;;;2.00;;
14125;SDS011;7141;49.484;11.242;2022-11-04T09:01:08;4.10;;;2.20;;
14125;SDS011;7141;49.484;11.242;2022-11-04T09:03:35;2.23;;;1.97;;
14125;SDS011;7141;49.484;11.242;2022-11-04T09:06:02;3.27;;;2.07;;
14125;SDS011;7141;49.484;11.242;2022-11-04T09:08:28;4.90;;;2.30;;
14125;SDS011;7141;49.484;11.242;2022-11-04T09:10:54;5.20;;;2.50;;
14125;SDS011;7141;49.484;11.242;2022-11-04T09:13:20;5.07;;;2.53;;
14125;SDS011;7141;49.484;11.242;2022-11-04T09:15:46;3.87;;;2.70;;
14125;SDS011;7141;49.484;11.242;2022-11-04T09:18:13;5.20;;;2.60;;
14125;SDS011;7141;49.484;11.242;2022-11-04T09:20:39;4.90;;;2.90;;
14125;SDS011;7141;49.484;11.242;2022-11-04T09:23:06;5.67;;;2.40;;
14125;SDS011;7141;49.484;11.242;2022-11-04T09:25:33;4.00;;;2.50;;
14125;SDS011;7141;49.484;11.242;2022-11-04T09:27:59;4.03;;;2.70;;
14125;SDS011;7141;49.484;11.242;2022-11-04T09:30:25;3.90;;;2.80;;
14125;SDS011;7141;49.484;11.242;2022-11-04T09:32:51;4.23;;;2.60;;
14125;SDS011;7141;49.484;11.242;2022-11-04T09:35:17;4.10;;;2.63;;
14125;SDS011;7141;49.484;11.242;2022-11-04T09:37:43;6.13;;;2.70;;
14125;SDS011;7141;49.484;11.242;2022-11-04T09:40:14;5.40;;;2.43;;
14125;SDS011;7141;49.484;11.242;2022-11-04T09:45:08;4.53;;;2.23;;
14125;SDS011;7141;49.484;11.242;2022-11-04T09:47:36;4.07;;;2.10;;
14125;SDS011;7141;49.484;11.242;2022-11-04T09:50:05;3.00;;;2.20;;
14125;SDS011;7141;49.484;11.242;2022-11-04T09:52:34;4.20;;;2.10;;
14125;SDS011;7141;49.484;11.242;2022-11-04T09:55:06;4.43;;;2.20;;
14125;SDS011;7141;49.484;11.242;2022-11-04T09:57:37;5.60;;;2.43;;
14125;SDS011;7141;49.484;11.242;2022-11-04T10:00:04;5.10;;;2.20;;
14125;SDS011;7141;49.484;11.242;2022-11-04T10:06:04;5.87;;;2.27;;
14125;SDS011;7141;49.484;11.242;2022-11-04T10:08:02;3.20;;;2.03;;
14125;SDS011;7141;49.484;11.242;2022-11-04T10:16:06;7.33;;;2.00;;
14125;SDS011;7141;49.484;11.242;2022-11-04T10:21:03;4.37;;;1.87;;
14125;SDS011;7141;49.484;11.242;2022-11-04T10:28:30;4.17;;;1.90;;
14125;SDS011;7141;49.484;11.242;2022-11-04T10:31:00;4.13;;;1.83;;
14125;SDS011;7141;49.484;11.242;2022-11-04T10:33:39;7.90;;;1.87;;
14125;SDS011;7141;49.484;11.242;2022-11-04T10:36:07;5.70;;;1.70;;
14125;SDS011;7141;49.484;11.242;2022-11-04T10:38:43;5.40;;;1.70;;
14125;SDS011;7141;49.484;11.242;2022-11-04T10:41:14;7.50;;;2.27;;
14125;SDS011;7141;49.484;11.242;2022-11-04T10:43:42;4.60;;;2.20;;
14125;SDS011;7141;49.484;11.242;2022-11-04T10:49:04;5.73;;;1.60;;
14125;SDS011;7141;49.484;11.242;2022-11-04T10:51:37;6.77;;;1.87;;
14125;SDS011;7141;49.484;11.242;2022-11-04T10:54:04;5.33;;;2.00;;
14125;SDS011;7141;49.484;11.242;2022-11-04T10:56:40;3.90;;;1.47;;
14125;SDS011;7141;49.484;11.242;2022-11-04T11:01:49;4.83;;;2.20;;
14125;SDS011;7141;49.484;11.242;2022-11-04T11:04:26;3.70;;;1.80;;
14125;SDS011;7141;49.484;11.242;2022-11-04T11:06:53;3.30;;;1.80;;
14125;SDS011;7141;49.484;11.242;2022-11-04T11:09:24;5.10;;;1.63;;
14125;SDS011;7141;49.484;11.242;2022-11-04T11:11:54;7.13;;;1.80;;
14125;SDS011;7141;49.484;11.242;2022-11-04T11:16:52;7.23;;;2.00;;
14125;SDS011;7141;49.484;11.242;2022-11-04T11:19:19;5.83;;;1.53;;
14125;SDS011;7141;49.484;11.242;2022-11-04T11:21:47;5.23;;;2.10;;
14125;SDS011;7141;49.484;11.242;2022-11-04T11:24:18;3.63;;;1.40;;
14125;SDS011;7141;49.484;11.242;2022-11-04T11:26:44;4.13;;;1.70;;
14125;SDS011;7141;49.484;11.242;2022-11-04T11:29:23;4.70;;;1.63;;
14125;SDS011;7141;49.484;11.242;2022-11-04T11:31:49;5.30;;;1.43;;
14125;SDS011;7141;49.484;11.242;2022-11-04T11:34:20;4.97;;;1.70;;
14125;SDS011;7141;49.484;11.242;2022-11-04T11:36:47;8.57;;;1.70;;
14125;SDS011;7141;49.484;11.242;2022-11-04T11:39:15;2.97;;;1.50;;
14125;SDS011;7141;49.484;11.242;2022-11-04T11:44:33;4.80;;;1.60;;
14125;SDS011;7141;49.484;11.242;2022-11-04T11:47:03;4.40;;;1.57;;
14125;SDS011;7141;49.484;11.242;2022-11-04T11:49:34;5.53;;;1.43;;
14125;SDS011;7141;49.484;11.242;2022-11-04T11:54:42;2.90;;;1.20;;
14125;SDS011;7141;49.484;11.242;2022-11-04T11:57:17;4.13;;;1.50;;
14125;SDS011;7141;49.484;11.242;2022-11-04T11:59:48;7.20;;;2.07;;
14125;SDS011;7141;49.484;11.242;2022-11-04T12:02:22;5.83;;;1.80;;
14125;SDS011;7141;49.484;11.242;2022-11-04T12:04:49;7.20;;;1.57;;
14125;SDS011;7141;49.484;11.242;2022-11-04T12:24:49;7.17;;;1.53;;
14125;SDS011;7141;49.484;11.242;2022-11-04T12:27:55;4.07;;;1.40;;
14125;SDS011;7141;49.484;11.242;2022-11-04T12:30:18;3.13;;;1.40;;
14125;SDS011;7141;49.484;11.242;2022-11-04T12:32:56;5.07;;;1.50;;
14125;SDS011;7141;49.484;11.242;2022-11-04T12:40:28;2.57;;;1.33;;
14125;SDS011;7141;49.484;11.242;2022-11-04T12:45:42;2.50;;;1.63;;
14125;SDS011;7141;49.484;11.242;2022-11-04T12:48:10;5.00;;;2.07;;
14125;SDS011;7141;49.484;11.242;2022-11-04T12:58:20;6.17;;;1.30;;
14125;SDS011;7141;49.484;11.242;2022-11-04T13:00:53;6.00;;;2.23;;
14125;SDS011;7141;49.484;11.242;2022-11-04T13:06:18;9.03;;;2.00;;
14125;SDS011;7141;49.484;11.242;2022-11-04T13:09:07;5.00;;;1.87;;
14125;SDS011;7141;49.484;11.242;2022-11-04T13:11:35;5.03;;;1.70;;
14125;SDS011;7141;49.484;11.242;2022-11-04T13:14:20;6.27;;;2.40;;
14125;SDS011;7141;49.484;11.242;2022-11-04T13:16:53;4.93;;;1.90;;
14125;SDS011;7141;49.484;11.242;2022-11-04T13:21:55;5.43;;;1.47;;
14125;SDS011;7141;49.484;11.242;2022-11-04T13:24:28;4.00;;;1.60;;
14125;SDS011;7141;49.484;11.242;2022-11-04T13:26:59;4.50;;;1.93;;
14125;SDS011;7141;49.484;11.242;2022-11-04T13:29:26;5.53;;;1.80;;
14125;SDS011;7141;49.484;11.242;2022-11-04T13:31:54;5.33;;;2.10;;
14125;SDS011;7141;49.484;11.242;2022-11-04T13:37:16;7.03;;;2.70;;
14125;SDS011;7141;49.484;11.242;2022-11-04T13:44:48;4.73;;;1.60;;
14125;SDS011;7141;49.484;11.242;2022-11-04T13:47:18;9.63;;;3.67;;
14125;SDS011;7141;49.484;11.242;2022-11-04T13:49:49;2.73;;;1.57;;
14125;SDS011;7141;49.484;11.242;2022-11-04T13:52:15;8.50;;;1.80;;
14125;SDS011;7141;49.484;11.242;2022-11-04T13:57:20;6.57;;;2.87;;
14125;SDS011;7141;49.484;11.242;2022-11-04T14:06:02;3.10;;;1.50;;
14125;SDS011;7141;49.484;11.242;2022-11-04T14:08:37;7.07;;;2.03;;
14125;SDS011;7141;49.484;11.242;2022-11-04T14:10:57;5.20;;;1.80;;
14125;SDS011;7141;49.484;11.242;2022-11-04T14:18:28;3.57;;;1.80;;
14125;SDS011;7141;49.484;11.242;2022-11-04T14:23:26;4.50;;;1.50;;
14125;SDS011;7141;49.484;11.242;2022-11-04T14:26:06;3.30;;;1.30;;
14125;SDS011;7141;49.484;11.242;2022-11-04T14:28:32;5.07;;;1.57;;
14125;SDS011;7141;49.484;11.242;2022-11-04T14:30:59;5.87;;;1.37;;
14125;SDS011;7141;49.484;11.242;2022-11-04T14:38:39;2.97;;;1.60;;
14125;SDS011;7141;49.484;11.242;2022-11-04T14:41:14;5.23;;;2.67;;
14125;SDS011;7141;49.484;11.242;2022-11-04T14:43:42;5.03;;;1.50;;
14125;SDS011;7141;49.484;11.242;2022-11-04T14:46:09;5.37;;;1.77;;
14125;SDS011;7141;49.484;11.242;2022-11-04T14:48:36;4.37;;;2.00;;
14125;SDS011;7141;49.484;11.242;2022-11-04T14:51:16;6.07;;;1.80;;
14125;SDS011;7141;49.484;11.242;2022-11-04T14:53:43;3.80;;;1.50;;
14125;SDS011;7141;49.484;11.242;2022-11-04T14:56:30;4.03;;;1.57;;
14125;SDS011;7141;49.484;11.242;2022-11-04T14:59:02;3.47;;;1.97;;
14125;SDS011;7141;49.484;11.242;2022-11-04T15:01:33;5.80;;;1.97;;
14125;SDS011;7141;49.484;11.242;2022-11-04T15:04:03;5.77;;;2.20;;
14125;SDS011;7141;49.484;11.242;2022-11-04T15:06:30;6.03;;;1.90;;
14125;SDS011;7141;49.484;11.242;2022-11-04T15:08:56;4.97;;;2.80;;
14125;SDS011;7141;49.484;11.242;2022-11-04T15:11:23;3.70;;;1.83;;
14125;SDS011;7141;49.484;11.242;2022-11-04T15:14:16;3.20;;;1.87;;
14125;SDS011;7141;49.484;11.242;2022-11-04T15:16:43;4.90;;;1.67;;
14125;SDS011;7141;49.484;11.242;2022-11-04T15:19:10;7.10;;;2.63;;
14125;SDS011;7141;49.484;11.242;2022-11-04T15:21:39;4.27;;;1.80;;
14125;SDS011;7141;49.484;11.242;2022-11-04T15:24:09;7.17;;;2.33;;
14125;SDS011;7141;49.484;11.242;2022-11-04T15:26:40;6.13;;;2.00;;
14125;SDS011;7141;49.484;11.242;2022-11-04T15:29:07;7.60;;;1.90;;
14125;SDS011;7141;49.484;11.242;2022-11-04T15:31:34;5.00;;;2.30;;
14125;SDS011;7141;49.484;11.242;2022-11-04T15:34:01;6.97;;;1.73;;
14125;SDS011;7141;49.484;11.242;2022-11-04T15:36:38;4.80;;;1.80;;
14125;SDS011;7141;49.484;11.242;2022-11-04T15:39:19;6.33;;;1.80;;
14125;SDS011;7141;49.484;11.242;2022-11-04T15:41:46;4.13;;;1.90;;
14125;SDS011;7141;49.484;11.242;2022-11-04T15:44:32;6.03;;;2.30;;
14125;SDS011;7141;49.484;11.242;2022-11-04T15:49:43;10.20;;;2.90;;
14125;SDS011;7141;49.484;11.242;2022-11-04T15:52:17;5.70;;;2.27;;
14125;SDS011;7141;49.484;11.242;2022-11-04T15:54:45;4.83;;;1.97;;
14125;SDS011;7141;49.484;11.242;2022-11-04T15:57:23;3.83;;;1.57;;
14125;SDS011;7141;49.484;11.242;2022-11-04T15:59:59;7.93;;;3.93;;
14125;SDS011;7141;49.484;11.242;2022-11-04T16:02:59;9.00;;;4.13;;
14125;SDS011;7141;49.484;11.242;2022-11-04T16:07:48;12.40;;;4.90;;
14125;SDS011;7141;49.484;11.242;2022-11-04T16:12:56;6.87;;;3.83;;
14125;SDS011;7141;49.484;11.242;2022-11-04T16:15:33;10.30;;;5.00;;
14125;SDS011;7141;49.484;11.242;2022-11-04T16:17:59;7.53;;;4.43;;
14125;SDS011;7141;49.484;11.242;2022-11-04T16:20:25;11.03;;;5.03;;
14125;SDS011;7141;49.484;11.242;2022-11-04T16:22:55;6.97;;;4.47;;
14125;SDS011;7141;49.484;11.242;2022-11-04T16:25:22;16.80;;;9.63;;
14125;SDS011;7141;49.484;11.242;2022-11-04T16:27:48;20.60;;;11.73;;
14125;SDS011;7141;49.484;11.242;2022-11-04T16:32:42;21.83;;;13.17;;
14125;SDS011;7141;49.484;11.242;2022-11-04T16:35:13;22.70;;;13.30;;
14125;SDS011;7141;49.484;11.242;2022-11-04T16:37:39;22.07;;;12.20;;
14125;SDS011;7141;49.484;11.242;2022-11-04T16:40:05;40.90;;;21.00;;
14125;SDS011;7141;49.484;11.242;2022-11-04T16:42:32;23.23;;;12.87;;
14125;SDS011;7141;49.484;11.242;2022-11-04T16:44:58;22.77;;;12.63;;
14125;SDS011;7141;49.484;11.242;2022-11-04T16:47:25;18.07;;;9.03;;
14125;SDS011;7141;49.484;11.242;2022-11-04T16:49:53;13.10;;;6.93;;
14125;SDS011;7141;49.484;11.242;2022-11-04T16:52:21;10.17;;;6.00;;
14125;SDS011;7141;49.484;11.242;2022-11-04T16:54:49;10.37;;;5.97;;
14125;SDS011;7141;49.484;11.242;2022-11-04T16:57:15;13.67;;;7.80;;
14125;SDS011;7141;49.484;11.242;2022-11-04T16:59:41;11.87;;;7.13;;
14125;SDS011;7141;49.484;11.242;2022-11-04T17:02:30;11.03;;;5.90;;
14125;SDS011;7141;49.484;11.242;2022-11-04T17:04:59;11.13;;;6.13;;
14125;SDS011;7141;49.484;11.242;2022-11-04T17:07:25;9.50;;;7.03;;
14125;SDS011;7141;49.484;11.242;2022-11-04T17:09:50;26.77;;;16.97;;
14125;SDS011;7141;49.484;11.242;2022-11-04T17:12:16;13.13;;;7.53;;
14125;SDS011;7141;49.484;11.242;2022-11-04T17:14:42;11.73;;;8.27;;
14125;SDS011;7141;49.484;11.242;2022-11-04T17:17:09;14.27;;;10.00;;
14125;SDS011;7141;49.484;11.242;2022-11-04T17:19:35;15.33;;;11.90;;
14125;SDS011;7141;49.484;11.242;2022-11-04T17:22:03;16.07;;;9.17;;
14125;SDS011;7141;49.484;11.242;2022-11-04T17:24:29;8.57;;;4.60;;